createdAt,value
2023-01-03T00:01:07.499Z,89.11
2023-01-03T00:11:17.440Z,88.85
2023-01-03T00:21:20.018Z,89.15
2023-01-03T00:31:22.892Z,88.94
2023-01-03T00:41:25.887Z,89.72
2023-01-03T00:51:31.195Z,89.69
2023-01-03T01:01:45.792Z,89.94
2023-01-03T01:11:50.407Z,89.42
2023-01-03T01:21:52.929Z,89.30
2023-01-03T01:31:55.623Z,89.19
2023-01-03T01:42:30.454Z,89.83
2023-01-03T01:52:38.963Z,89.51
2023-01-03T02:02:42.722Z,89.89
2023-01-03T02:13:08.224Z,88.72
2023-01-03T02:23:32.613Z,89.26
2023-01-03T02:34:01.177Z,89.09
2023-01-03T02:44:39.677Z,89.71
2023-01-03T02:54:46.771Z,89.94
2023-01-03T03:04:55.293Z,89.70
2023-01-03T03:14:58.614Z,89.25
2023-01-03T03:25:06.479Z,89.93
2023-01-03T03:35:14.588Z,91.14
2023-01-03T03:45:24.484Z,91.98
2023-01-03T03:55:49.987Z,92.07
2023-01-03T04:06:00.221Z,92.17
2023-01-03T04:16:03.953Z,92.49
2023-01-03T04:26:06.302Z,92.55
2023-01-03T04:36:09.435Z,92.67
2023-01-03T04:46:11.782Z,91.44
2023-01-03T04:56:14.152Z,91.90
2023-01-03T05:06:17.059Z,91.95
2023-01-03T05:16:19.410Z,92.52
2023-01-03T05:26:22.520Z,91.78
2023-01-03T05:36:24.897Z,91.25
2023-01-03T05:46:27.216Z,91.65
2023-01-03T05:56:31.358Z,91.78
2023-01-03T06:06:33.653Z,93.09
2023-01-03T06:16:54.961Z,93.39
2023-01-03T06:26:59.763Z,93.36
2023-01-03T06:37:02.092Z,93.15
2023-01-03T06:47:23.017Z,94.68
2023-01-03T06:57:27.327Z,95.87
2023-01-03T07:07:30.793Z,95.36
2023-01-03T07:17:33.561Z,93.23
2023-01-03T07:27:36.162Z,92.83
2023-01-03T07:37:38.463Z,92.26
2023-01-03T07:47:44.997Z,91.09
2023-01-03T07:57:47.443Z,89.71
2023-01-03T08:07:51.769Z,89.09
2023-01-03T08:17:54.400Z,87.73
2023-01-03T08:28:01.010Z,86.89
2023-01-03T08:38:06.419Z,86.62
2023-01-03T08:48:10.151Z,86.04
2023-01-03T08:58:12.687Z,85.50
2023-01-03T09:08:18.254Z,84.88
2023-01-03T09:18:20.807Z,83.62
2023-01-03T09:28:23.621Z,81.85
2023-01-03T09:38:26.043Z,80.62
2023-01-03T09:48:38.223Z,79.64
2023-01-03T09:59:01.224Z,78.37
2023-01-03T10:09:12.538Z,77.94
2023-01-03T10:19:33.491Z,78.34
2023-01-03T10:29:36.033Z,77.60
2023-01-03T10:39:40.559Z,76.80
2023-01-03T10:49:46.925Z,75.85
2023-01-03T10:59:50.804Z,75.04
2023-01-03T11:09:55.637Z,74.42
2023-01-03T11:19:58.248Z,74.41
2023-01-03T11:30:12.841Z,74.02
2023-01-03T11:40:52.213Z,73.24
2023-01-03T11:51:17.414Z,72.96
2023-01-03T12:01:54.805Z,71.78
2023-01-03T12:12:30.408Z,70.20
2023-01-03T12:22:41.704Z,70.28
2023-01-03T12:33:00.884Z,70.32
2023-01-03T12:43:24.926Z,69.98
2023-01-03T12:53:43.621Z,69.29
2023-01-03T13:03:57.891Z,69.78
2023-01-03T13:14:20.678Z,69.52
2023-01-03T13:24:50.955Z,69.32
2023-01-03T13:34:56.476Z,69.40
2023-01-03T13:45:10.844Z,69.28
2023-01-03T13:55:55.106Z,69.77
2023-01-03T14:06:14.919Z,70.10
2023-01-03T14:16:35.794Z,70.40
2023-01-03T14:26:38.266Z,70.76
2023-01-03T14:36:48.206Z,70.94
2023-01-03T14:46:54.079Z,70.96
2023-01-03T14:56:56.874Z,71.15
2023-01-03T15:07:13.224Z,71.66
2023-01-03T15:17:19.891Z,72.11
2023-01-03T15:27:38.961Z,72.60
2023-01-03T15:37:43.711Z,73.00
2023-01-03T15:47:48.736Z,73.54
2023-01-03T15:57:53.926Z,73.96
2023-01-03T16:07:57.380Z,74.88
2023-01-03T16:18:10.089Z,74.85
2023-01-03T16:28:13.862Z,75.30
2023-01-03T16:38:17.563Z,75.55
2023-01-03T16:48:23.668Z,76.02
2023-01-03T16:58:26.576Z,76.64
2023-01-03T17:08:45.964Z,77.05
2023-01-03T17:18:50.643Z,77.17
2023-01-03T17:28:55.543Z,77.42
2023-01-03T17:39:02.785Z,77.08
2023-01-03T17:49:25.107Z,77.09
2023-01-03T17:59:28.723Z,76.92
2023-01-03T18:09:32.686Z,76.32
2023-01-03T18:19:36.051Z,75.14
2023-01-03T18:30:00.595Z,74.51
2023-01-03T18:40:08.359Z,74.04
2023-01-03T18:50:19.087Z,73.61
2023-01-03T19:00:28.172Z,73.46
2023-01-03T19:10:31.625Z,73.73
2023-01-03T19:20:37.103Z,74.22
2023-01-03T19:30:46.256Z,74.93
2023-01-03T19:40:50.096Z,75.44
2023-01-03T19:50:53.955Z,76.05
2023-01-03T20:00:59.176Z,76.70
2023-01-03T20:11:08.373Z,76.96
2023-01-03T20:21:23.598Z,76.98
2023-01-03T20:31:29.098Z,77.47
2023-01-03T20:41:37.191Z,77.68
2023-01-03T20:51:41.232Z,77.96
2023-01-03T21:02:21.343Z,78.44
2023-01-03T21:12:37.786Z,78.60
2023-01-03T21:22:43.491Z,79.02
2023-01-03T21:32:47.072Z,79.25
2023-01-03T21:43:04.113Z,79.30
2023-01-03T21:53:16.905Z,79.68
2023-01-03T22:03:38.953Z,79.76
2023-01-03T22:13:42.552Z,79.91
2023-01-03T22:23:45.224Z,80.17
2023-01-03T22:33:48.755Z,80.44
2023-01-03T22:43:53.051Z,80.38
2023-01-03T22:53:56.804Z,80.11
2023-01-03T23:04:00.833Z,80.18
2023-01-03T23:14:07.211Z,80.18
2023-01-03T23:24:13.415Z,80.40
2023-01-03T23:34:15.894Z,80.29
2023-01-03T23:44:18.640Z,80.50
2023-01-03T23:54:21.577Z,80.61
